createdAt,value
2023-01-24T00:00:41.168Z,4.39
2023-01-24T00:03:53.828Z,4.57
2023-01-24T00:07:06.414Z,4.46
2023-01-24T00:10:19.116Z,4.58
2023-01-24T00:13:31.564Z,4.61
2023-01-24T00:16:44.396Z,4.56
2023-01-24T00:19:56.703Z,4.53
2023-01-24T00:23:09.336Z,4.50
2023-01-24T00:26:22.453Z,4.50
2023-01-24T00:29:35.079Z,4.43
2023-01-24T00:32:47.563Z,4.50
2023-01-24T00:36:00.302Z,4.65
2023-01-24T00:39:12.709Z,4.61
2023-01-24T00:42:25.585Z,4.78
2023-01-24T00:45:38.146Z,4.83
2023-01-24T00:48:50.801Z,4.83
2023-01-24T00:52:03.525Z,4.76
2023-01-24T00:55:16.286Z,4.86
2023-01-24T00:58:28.844Z,4.85
2023-01-24T01:01:41.436Z,4.90
2023-01-24T01:04:55.711Z,5.03
2023-01-24T01:08:08.459Z,4.98
2023-01-24T01:11:21.088Z,5.08
2023-01-24T01:14:33.652Z,5.07
2023-01-24T01:17:46.017Z,4.97
2023-01-24T01:20:58.667Z,4.98
2023-01-24T01:24:11.623Z,4.69
2023-01-24T01:27:24.280Z,4.96
2023-01-24T01:30:36.608Z,5.03
2023-01-24T01:33:49.314Z,5.12
2023-01-24T01:37:01.643Z,5.00
2023-01-24T01:40:14.372Z,4.90
2023-01-24T01:43:28.683Z,5.03
2023-01-24T01:46:43.706Z,4.93
2023-01-24T01:50:16.183Z,5.00
2023-01-24T01:53:31.097Z,4.89
2023-01-24T01:56:53.879Z,4.65
2023-01-24T02:00:10.246Z,4.62
2023-01-24T02:03:39.455Z,4.71
2023-01-24T02:07:13.501Z,4.90
2023-01-24T02:10:46.235Z,4.71
2023-01-24T02:14:18.992Z,4.81
2023-01-24T02:17:31.838Z,4.81
2023-01-24T02:20:44.935Z,4.79
2023-01-24T02:24:05.661Z,4.69
2023-01-24T02:27:18.126Z,4.73
2023-01-24T02:30:31.792Z,4.74
2023-01-24T02:33:44.453Z,4.65
2023-01-24T02:37:05.015Z,4.78
2023-01-24T02:40:17.563Z,4.86
2023-01-24T02:43:32.889Z,4.78
2023-01-24T02:46:45.860Z,4.76
2023-01-24T02:49:58.538Z,4.80
2023-01-24T02:53:29.797Z,4.81
2023-01-24T02:57:02.094Z,4.81
2023-01-24T03:00:14.718Z,4.79
2023-01-24T03:03:28.041Z,4.82
2023-01-24T03:06:40.461Z,4.65
2023-01-24T03:09:53.152Z,4.39
2023-01-24T03:13:24.494Z,4.63
2023-01-24T03:16:56.185Z,4.64
2023-01-24T03:20:27.546Z,4.49
2023-01-24T03:23:58.950Z,4.47
2023-01-24T03:27:30.371Z,4.48
2023-01-24T03:31:01.923Z,4.45
2023-01-24T03:34:31.657Z,4.40
2023-01-24T03:38:03.148Z,4.38
2023-01-24T03:41:15.933Z,4.34
2023-01-24T03:44:29.375Z,4.34
2023-01-24T03:47:41.876Z,4.31
2023-01-24T03:51:13.753Z,4.33
2023-01-24T03:54:26.231Z,4.31
2023-01-24T03:57:39.143Z,4.22
2023-01-24T04:00:53.103Z,4.37
2023-01-24T04:04:06.802Z,4.30
2023-01-24T04:07:26.566Z,4.27
2023-01-24T04:10:40.174Z,4.16
2023-01-24T04:13:53.138Z,4.16
2023-01-24T04:17:05.927Z,4.30
2023-01-24T04:20:18.977Z,4.27
2023-01-24T04:23:31.747Z,4.17
2023-01-24T04:26:44.255Z,4.17
2023-01-24T04:29:57.792Z,4.05
2023-01-24T04:33:10.160Z,4.45
2023-01-24T04:36:22.831Z,4.32
2023-01-24T04:39:35.212Z,4.02
2023-01-24T04:42:48.423Z,4.02
2023-01-24T04:46:00.841Z,4.08
2023-01-24T04:49:14.415Z,4.15
2023-01-24T04:52:27.291Z,4.12
2023-01-24T04:55:40.576Z,4.14
2023-01-24T04:58:52.994Z,4.01
2023-01-24T05:02:05.679Z,4.09
2023-01-24T05:05:18.416Z,3.86
2023-01-24T05:08:31.460Z,3.73
2023-01-24T05:32:38.426Z,4.35
2023-01-24T05:36:00.537Z,4.35
2023-01-24T05:39:13.455Z,3.71
2023-01-24T05:42:28.129Z,3.67
2023-01-24T05:45:40.891Z,3.67
2023-01-24T05:48:54.098Z,3.74
2023-01-24T05:52:06.634Z,3.68
2023-01-24T05:55:20.988Z,3.57
2023-01-24T05:58:35.704Z,3.65
2023-01-24T06:01:49.007Z,3.41
2023-01-24T06:05:02.444Z,3.17
2023-01-24T06:08:15.127Z,3.19
2023-01-24T06:11:29.400Z,2.99
2023-01-24T06:14:44.169Z,3.05
2023-01-24T06:17:56.794Z,3.13
2023-01-24T06:21:35.402Z,3.08
2023-01-24T06:24:48.280Z,2.98
2023-01-24T06:28:01.278Z,2.97
2023-01-24T06:31:37.725Z,2.90
2023-01-24T06:35:14.870Z,2.89
2023-01-24T06:38:27.771Z,2.86
2023-01-24T06:41:40.328Z,3.08
2023-01-24T06:44:52.965Z,3.14
2023-01-24T06:48:05.772Z,2.98
2023-01-24T06:51:18.645Z,3.06
2023-01-24T06:54:31.086Z,3.24
2023-01-24T06:57:44.835Z,3.29
2023-01-24T07:00:57.219Z,3.35
2023-01-24T07:04:10.957Z,3.51
2023-01-24T07:07:23.313Z,3.68
2023-01-24T07:10:35.965Z,3.64
2023-01-24T07:13:49.439Z,3.69
2023-01-24T07:17:02.334Z,3.92
2023-01-24T07:20:15.046Z,4.16
2023-01-24T07:23:33.306Z,3.91
2023-01-24T07:26:45.940Z,4.31
2023-01-24T07:29:58.914Z,4.26
2023-01-24T07:33:12.040Z,4.19
2023-01-24T07:36:24.669Z,4.42
2023-01-24T07:39:37.081Z,4.53
2023-01-24T07:42:49.806Z,4.71
2023-01-24T07:46:02.261Z,4.62
2023-01-24T07:49:14.891Z,4.55
2023-01-24T07:52:27.234Z,4.74
2023-01-24T07:55:41.141Z,4.69
2023-01-24T07:58:54.712Z,5.12
2023-01-24T08:02:09.361Z,5.17
2023-01-24T08:05:22.048Z,5.16
2023-01-24T08:08:34.424Z,5.28
2023-01-24T08:11:47.087Z,5.54
2023-01-24T08:14:59.547Z,5.41
2023-01-24T08:18:12.320Z,5.43
2023-01-24T08:21:24.725Z,5.54
2023-01-24T08:24:39.451Z,5.19
2023-01-24T08:27:51.839Z,5.31
2023-01-24T08:31:04.993Z,5.69
2023-01-24T08:34:17.387Z,5.42
2023-01-24T08:37:30.067Z,5.08
2023-01-24T08:40:49.368Z,5.25
2023-01-24T08:44:03.845Z,5.32
2023-01-24T08:47:16.180Z,5.27
2023-01-24T08:50:28.810Z,5.29
2023-01-24T08:53:42.173Z,5.32
2023-01-24T08:56:55.082Z,5.35
2023-01-24T09:00:08.338Z,5.37
2023-01-24T09:03:21.016Z,5.20
2023-01-24T09:06:33.343Z,5.28
2023-01-24T09:09:45.983Z,5.50
2023-01-24T09:12:58.296Z,5.21
2023-01-24T09:16:11.006Z,5.20
2023-01-24T09:19:28.027Z,5.36
2023-01-24T09:22:40.654Z,5.51
2023-01-24T09:25:53.183Z,5.54
2023-01-24T09:29:05.860Z,5.71
2023-01-24T09:32:18.348Z,5.73
2023-01-24T09:35:31.301Z,5.87
2023-01-24T09:38:50.001Z,6.18
2023-01-24T09:42:36.485Z,6.15
2023-01-24T09:45:53.089Z,6.15
2023-01-24T09:49:09.445Z,6.15
2023-01-24T09:52:27.936Z,6.40
2023-01-24T09:55:44.011Z,6.42
2023-01-24T09:59:13.410Z,6.52
2023-01-24T10:02:28.625Z,6.64
2023-01-24T10:05:41.907Z,6.53
2023-01-24T10:09:08.529Z,6.55
2023-01-24T10:12:30.506Z,6.53
2023-01-24T10:15:55.014Z,6.75
2023-01-24T10:19:26.318Z,6.78
2023-01-24T10:22:44.286Z,7.10
2023-01-24T10:26:04.958Z,6.95
2023-01-24T10:29:18.222Z,7.01
2023-01-24T10:32:32.679Z,7.10
2023-01-24T10:35:57.231Z,6.86
2023-01-24T10:39:13.451Z,7.01
2023-01-24T10:42:30.326Z,7.18
2023-01-24T10:46:15.884Z,7.22
2023-01-24T10:49:30.276Z,7.26
2023-01-24T10:52:43.491Z,7.27
2023-01-24T10:56:00.725Z,7.12
2023-01-24T10:59:14.128Z,7.08
2023-01-24T11:02:27.554Z,7.20
2023-01-24T11:05:50.897Z,7.11
2023-01-24T11:09:05.903Z,7.39
2023-01-24T11:12:21.647Z,7.71
2023-01-24T11:15:34.057Z,7.59
2023-01-24T11:18:53.175Z,7.37
2023-01-24T11:22:22.953Z,7.50
2023-01-24T11:25:35.608Z,7.67
2023-01-24T11:29:02.161Z,7.83
2023-01-24T11:32:46.294Z,8.08
2023-01-24T11:36:04.515Z,8.21
2023-01-24T11:39:38.721Z,8.10
2023-01-24T11:43:02.864Z,8.22
2023-01-24T11:46:41.469Z,7.98
2023-01-24T11:50:06.811Z,8.20
2023-01-24T11:53:44.558Z,8.15
2023-01-24T11:57:05.954Z,8.31
2023-01-24T12:00:36.903Z,8.49
2023-01-24T12:04:14.285Z,8.45
2023-01-24T12:07:48.163Z,8.16
2023-01-24T12:11:35.172Z,8.32
2023-01-24T12:15:12.738Z,8.17
2023-01-24T12:18:52.720Z,8.32
2023-01-24T12:22:11.259Z,8.24
2023-01-24T12:25:31.525Z,8.49
2023-01-24T12:29:01.096Z,8.63
2023-01-24T12:32:24.359Z,8.55
2023-01-24T12:35:42.857Z,8.45
2023-01-24T12:38:56.571Z,8.30
2023-01-24T12:42:20.141Z,8.36
2023-01-24T12:45:32.846Z,7.94
2023-01-24T12:48:51.585Z,7.99
2023-01-24T12:52:33.009Z,8.02
2023-01-24T12:56:21.956Z,7.84
2023-01-24T12:59:35.836Z,7.86
2023-01-24T13:03:07.824Z,7.81
2023-01-24T13:06:50.962Z,7.77
2023-01-24T13:10:22.720Z,7.94
2023-01-24T13:13:40.363Z,7.97
2023-01-24T13:16:59.405Z,8.20
2023-01-24T13:20:36.559Z,8.34
2023-01-24T13:23:51.605Z,8.41
2023-01-24T13:27:23.011Z,8.51
2023-01-24T13:31:10.708Z,8.81
2023-01-24T13:34:32.699Z,9.00
2023-01-24T13:37:50.840Z,8.96
2023-01-24T13:41:05.798Z,9.10
2023-01-24T13:44:27.520Z,9.36
2023-01-24T13:47:40.205Z,9.13
2023-01-24T13:51:17.275Z,9.07
2023-01-24T13:54:42.976Z,9.19
2023-01-24T13:58:13.981Z,9.01
2023-01-24T14:01:26.709Z,9.05
2023-01-24T14:04:41.593Z,8.91
2023-01-24T14:07:53.970Z,8.84
2023-01-24T14:11:07.003Z,8.73
2023-01-24T14:14:32.779Z,8.53
2023-01-24T14:17:49.803Z,8.47
2023-01-24T14:21:03.260Z,8.39
2023-01-24T14:24:30.268Z,8.32
2023-01-24T14:27:58.160Z,8.21
2023-01-24T14:31:34.636Z,8.03
2023-01-24T14:35:00.829Z,7.85
2023-01-24T14:38:17.700Z,7.83
2023-01-24T14:41:30.017Z,7.68
2023-01-24T14:44:55.917Z,7.61
2023-01-24T14:48:09.195Z,7.42
2023-01-24T14:51:25.263Z,7.41
2023-01-24T14:54:37.648Z,7.17
2023-01-24T14:57:50.342Z,7.24
2023-01-24T15:01:03.397Z,7.15
2023-01-24T15:04:31.575Z,6.94
2023-01-24T15:07:47.026Z,6.84
2023-01-24T15:11:04.863Z,6.84
2023-01-24T15:14:19.475Z,6.99
2023-01-24T15:17:32.915Z,6.99
2023-01-24T15:20:48.095Z,6.87
2023-01-24T15:24:00.755Z,6.65
2023-01-24T15:27:22.136Z,6.50
2023-01-24T15:30:34.874Z,6.33
2023-01-24T15:33:47.218Z,6.14
2023-01-24T15:37:01.002Z,5.93
2023-01-24T15:40:20.335Z,5.88
2023-01-24T15:43:46.797Z,5.79
2023-01-24T15:47:18.066Z,5.56
2023-01-24T15:50:49.265Z,5.41
2023-01-24T15:54:01.673Z,5.23
2023-01-24T15:57:33.997Z,5.12
2023-01-24T16:00:56.535Z,5.02
2023-01-24T16:04:15.031Z,4.91
2023-01-24T16:07:27.437Z,4.77
2023-01-24T16:10:40.264Z,4.71
2023-01-24T16:13:56.677Z,4.54
2023-01-24T16:17:09.546Z,4.47
2023-01-24T16:20:27.764Z,4.34
2023-01-24T16:23:40.422Z,4.24
2023-01-24T16:26:53.471Z,4.10
2023-01-24T16:30:07.828Z,4.05
2023-01-24T16:33:20.883Z,4.03
2023-01-24T16:36:33.931Z,3.92
2023-01-24T16:39:46.583Z,3.80
2023-01-24T16:42:59.219Z,3.65
2023-01-24T16:46:21.223Z,3.67
2023-01-24T16:49:33.848Z,3.55
2023-01-24T16:52:46.476Z,3.48
2023-01-24T16:55:59.153Z,3.42
2023-01-24T16:59:11.459Z,3.40
2023-01-24T17:02:24.207Z,3.44
2023-01-24T17:05:37.092Z,3.43
2023-01-24T17:08:52.898Z,3.37
2023-01-24T17:12:14.229Z,3.40
2023-01-24T17:15:27.327Z,3.33
2023-01-24T17:18:40.676Z,3.35
2023-01-24T17:21:53.258Z,3.21
2023-01-24T17:25:06.004Z,3.12
2023-01-24T17:28:18.664Z,3.01
2023-01-24T17:31:32.786Z,3.04
2023-01-24T17:34:45.491Z,2.98
2023-01-24T17:37:57.849Z,2.43
2023-01-24T17:41:17.382Z,2.48
2023-01-24T17:44:29.774Z,2.62
2023-01-24T17:47:42.486Z,2.65
2023-01-24T17:50:56.978Z,2.63
2023-01-24T17:54:12.817Z,2.58
2023-01-24T17:57:25.193Z,2.54
2023-01-24T18:00:38.297Z,2.40
2023-01-24T18:03:50.915Z,2.25
2023-01-24T18:07:03.247Z,2.35
2023-01-24T18:10:16.119Z,2.23
2023-01-24T18:13:28.471Z,2.19
2023-01-24T18:16:41.137Z,2.18
2023-01-24T18:19:53.524Z,2.06
2023-01-24T18:23:06.719Z,1.94
2023-01-24T18:26:19.088Z,1.98
2023-01-24T18:29:31.734Z,2.05
2023-01-24T18:32:44.143Z,1.97
2023-01-24T18:35:56.770Z,1.85
2023-01-24T18:39:09.093Z,1.72
2023-01-24T18:42:21.709Z,1.64
2023-01-24T18:45:34.116Z,1.67
2023-01-24T18:48:46.768Z,1.57
2023-01-24T18:51:59.532Z,1.57
2023-01-24T18:55:14.205Z,1.57
2023-01-24T18:58:26.632Z,1.49
2023-01-24T19:01:39.580Z,1.50
2023-01-24T19:04:51.946Z,1.44
2023-01-24T19:08:04.595Z,1.43
2023-01-24T19:11:16.933Z,1.47
2023-01-24T19:14:30.899Z,1.39
2023-01-24T19:17:43.250Z,1.27
2023-01-24T19:20:56.578Z,1.25
2023-01-24T19:24:09.406Z,1.24
2023-01-24T19:27:22.071Z,1.30
2023-01-24T19:30:34.523Z,1.21
2023-01-24T19:33:50.670Z,1.16
2023-01-24T19:37:06.203Z,1.11
2023-01-24T19:40:19.153Z,1.07
2023-01-24T19:43:31.563Z,1.06
2023-01-24T19:46:44.231Z,1.03
2023-01-24T19:49:56.610Z,0.96
2023-01-24T19:53:10.041Z,0.85
2023-01-24T19:56:22.382Z,0.80
2023-01-24T19:59:34.986Z,0.73
2023-01-24T20:02:47.440Z,0.74
2023-01-24T20:06:06.084Z,0.76
2023-01-24T20:09:18.406Z,0.70
2023-01-24T20:12:31.028Z,0.77
2023-01-24T20:15:43.343Z,0.73
2023-01-24T20:19:00.809Z,0.73
2023-01-24T20:22:13.169Z,0.67
2023-01-24T20:25:25.992Z,0.62
2023-01-24T20:28:38.964Z,0.61
2023-01-24T20:31:51.745Z,0.50
2023-01-24T20:35:06.131Z,0.37
2023-01-24T20:38:19.434Z,0.33
2023-01-24T20:41:36.222Z,0.41
2023-01-24T20:44:48.886Z,0.40
2023-01-24T20:48:01.298Z,0.33
2023-01-24T20:51:13.916Z,0.27
2023-01-24T20:54:26.268Z,0.32
2023-01-24T20:57:38.922Z,0.25
2023-01-24T21:00:51.992Z,0.13
2023-01-24T21:04:06.912Z,0.22
2023-01-24T21:07:19.236Z,0.26
2023-01-24T21:10:31.845Z,0.27
2023-01-24T21:13:44.160Z,0.21
2023-01-24T21:16:57.017Z,0.19
2023-01-24T21:20:12.347Z,0.11
2023-01-24T21:23:26.582Z,0.11
2023-01-24T21:26:39.031Z,0.04
2023-01-24T21:29:51.664Z,-0.01
2023-01-24T21:33:04.112Z,0.08
2023-01-24T21:36:18.860Z,0.24
2023-01-24T21:39:31.322Z,0.33
2023-01-24T21:42:44.000Z,0.26
2023-01-24T21:45:56.325Z,0.19
2023-01-24T21:49:10.066Z,0.29
2023-01-24T21:52:22.383Z,0.17
2023-01-24T21:55:54.974Z,0.19
2023-01-24T21:59:07.324Z,0.25
2023-01-24T22:02:21.886Z,0.45
2023-01-24T22:05:34.488Z,0.65
2023-01-24T22:08:47.062Z,0.82
2023-01-24T22:11:59.656Z,0.91
2023-01-24T22:15:15.503Z,1.06
2023-01-24T22:18:28.343Z,1.14
2023-01-24T22:21:50.121Z,1.17
2023-01-24T22:25:17.688Z,1.32
2023-01-24T22:28:30.417Z,1.30
2023-01-24T22:31:43.459Z,1.42
2023-01-24T22:34:57.871Z,1.44
2023-01-24T22:38:10.608Z,1.67
2023-01-24T22:41:23.013Z,1.66
2023-01-24T22:44:35.603Z,1.69
2023-01-24T22:47:47.895Z,1.93
2023-01-24T22:51:00.493Z,2.20
2023-01-24T22:54:12.992Z,2.23
2023-01-24T22:57:25.656Z,2.22
2023-01-24T23:00:38.036Z,2.29
2023-01-24T23:03:50.663Z,2.36
2023-01-24T23:07:03.424Z,2.27
2023-01-24T23:10:16.397Z,2.35
2023-01-24T23:13:47.050Z,2.29
2023-01-24T23:17:05.413Z,2.11
2023-01-24T23:20:36.374Z,2.15
2023-01-24T23:23:48.997Z,2.22
2023-01-24T23:27:01.567Z,2.24
2023-01-24T23:30:14.295Z,2.17
2023-01-24T23:33:33.847Z,2.16
2023-01-24T23:36:46.503Z,2.18
2023-01-24T23:39:58.948Z,2.08
2023-01-24T23:43:12.583Z,2.05
2023-01-24T23:46:24.947Z,2.03
2023-01-24T23:49:37.651Z,1.97
2023-01-24T23:52:50.079Z,1.95
2023-01-24T23:56:02.744Z,1.86
2023-01-24T23:59:15.117Z,1.93
